createdAt,value
2018-05-01T00:01:41.023Z,74.10
2018-05-01T00:04:09.780Z,74.00
2018-05-01T00:06:38.159Z,74.00
2018-05-01T00:09:05.658Z,75.00
2018-05-01T00:11:33.911Z,74.80
2018-05-01T00:14:01.349Z,74.80
2018-05-01T00:16:28.868Z,75.50
2018-05-01T00:18:56.621Z,75.10
2018-05-01T00:21:24.100Z,74.60
2018-05-01T00:23:51.543Z,75.10
2018-05-01T00:26:19.526Z,75.40
2018-05-01T00:28:46.980Z,76.40
2018-05-01T00:31:14.432Z,76.80
2018-05-01T00:33:41.895Z,77.00
2018-05-01T00:36:10.479Z,76.60
2018-05-01T00:38:37.951Z,76.60
2018-05-01T00:41:05.839Z,77.50
2018-05-01T00:43:33.300Z,77.20
2018-05-01T00:46:00.736Z,76.90
2018-05-01T00:48:28.365Z,77.70
2018-05-01T00:50:55.798Z,77.30
2018-05-01T00:53:23.907Z,77.40
2018-05-01T00:55:51.451Z,77.60
2018-05-01T00:58:18.889Z,79.00
2018-05-01T01:00:46.343Z,78.30
2018-05-01T01:03:14.385Z,78.30
2018-05-01T01:05:42.027Z,78.20
2018-05-01T01:08:09.485Z,78.30
2018-05-01T01:10:37.352Z,78.10
2018-05-01T01:13:04.945Z,79.00
2018-05-01T01:15:33.213Z,78.30
2018-05-01T01:18:01.496Z,78.70
2018-05-01T01:20:31.002Z,78.50
2018-05-01T01:22:58.533Z,78.50
2018-05-01T01:25:26.498Z,79.00
2018-05-01T01:27:54.012Z,79.30
2018-05-01T01:30:21.458Z,79.20
2018-05-01T01:32:52.913Z,79.10
2018-05-01T01:35:20.368Z,78.90
2018-05-01T01:37:47.344Z,79.50
2018-05-01T01:40:14.303Z,79.30
2018-05-01T01:42:41.659Z,79.80
2018-05-01T01:45:08.634Z,80.40
2018-05-01T01:47:36.583Z,80.10
2018-05-01T01:50:05.351Z,80.00
2018-05-01T01:52:32.303Z,80.00
2018-05-01T01:55:00.975Z,80.10
2018-05-01T01:57:28.133Z,80.10
2018-05-01T01:59:55.133Z,80.80
2018-05-01T02:02:22.099Z,80.60
2018-05-01T02:04:49.533Z,80.40
2018-05-01T02:07:16.617Z,80.60
2018-05-01T02:09:43.571Z,81.10
2018-05-01T02:12:10.588Z,81.20
2018-05-01T02:14:37.535Z,80.80
2018-05-01T02:17:04.703Z,80.80
2018-05-01T02:19:32.051Z,81.20
2018-05-01T02:21:59.112Z,80.80
2018-05-01T02:24:26.059Z,81.30
2018-05-01T02:26:53.348Z,80.90
2018-05-01T02:29:21.151Z,81.10
2018-05-01T02:31:48.147Z,81.00
2018-05-01T02:34:15.881Z,81.20
2018-05-01T02:36:43.404Z,81.10
2018-05-01T02:39:10.367Z,82.10
2018-05-01T02:41:38.561Z,81.20
2018-05-01T02:44:05.531Z,81.70
2018-05-01T02:46:33.876Z,81.40
2018-05-01T02:49:00.855Z,81.40
2018-05-01T02:51:28.583Z,82.10
2018-05-01T02:53:55.944Z,82.00
2018-05-01T02:56:23.514Z,81.80
2018-05-01T02:58:50.506Z,81.80
2018-05-01T03:01:17.456Z,82.10
2018-05-01T03:03:44.430Z,81.00
2018-05-01T03:06:11.697Z,81.40
2018-05-01T03:08:38.700Z,81.50
2018-05-01T03:11:05.668Z,81.40
2018-05-01T03:13:32.822Z,81.80
2018-05-01T03:15:59.840Z,81.90
2018-05-01T03:18:26.824Z,81.80
2018-05-01T03:20:54.289Z,81.20
2018-05-01T03:23:21.237Z,81.70
2018-05-01T03:25:48.378Z,82.20
2018-05-01T03:28:15.707Z,82.30
2018-05-01T03:30:42.972Z,82.10
2018-05-01T03:33:10.110Z,82.70
2018-05-01T03:35:37.481Z,82.60
2018-05-01T03:38:04.443Z,82.70
2018-05-01T03:40:32.591Z,82.20
2018-05-01T03:42:59.549Z,82.10
2018-05-01T03:45:26.528Z,81.80
2018-05-01T03:47:54.260Z,81.60
2018-05-01T03:50:21.210Z,81.60
2018-05-01T03:52:48.973Z,81.70
2018-05-01T03:55:17.030Z,81.10
2018-05-01T03:57:44.008Z,81.10
2018-05-01T04:00:10.959Z,81.50
2018-05-01T04:02:37.933Z,81.40
2018-05-01T04:05:05.368Z,82.10
2018-05-01T04:07:32.351Z,81.60
2018-05-01T04:09:59.311Z,81.80
2018-05-01T04:12:26.465Z,82.20
2018-05-01T04:14:53.424Z,82.40
2018-05-01T04:17:21.179Z,82.70
2018-05-01T04:19:48.624Z,82.60
2018-05-01T04:22:15.602Z,82.60
2018-05-01T04:24:42.927Z,83.00
2018-05-01T04:27:10.402Z,83.00
2018-05-01T04:29:37.359Z,82.30
2018-05-01T04:32:05.096Z,82.50
2018-05-01T04:34:32.638Z,82.40
2018-05-01T04:37:00.192Z,83.00
2018-05-01T04:39:27.154Z,82.40
2018-05-01T04:41:54.508Z,82.10
2018-05-01T04:44:21.478Z,82.00
2018-05-01T04:46:49.227Z,82.10
2018-05-01T04:49:16.189Z,82.10
2018-05-01T04:51:43.974Z,82.00
2018-05-01T04:54:11.607Z,82.00
2018-05-01T04:56:39.353Z,81.90
2018-05-01T04:59:06.332Z,81.90
2018-05-01T05:01:33.279Z,82.10
2018-05-01T05:04:00.915Z,82.90
2018-05-01T05:06:28.642Z,80.20
2018-05-01T05:08:55.642Z,80.20
2018-05-01T05:11:23.351Z,80.20
2018-05-01T05:13:50.809Z,80.20
2018-05-01T05:16:17.755Z,80.10
2018-05-01T05:18:45.109Z,80.10
2018-05-01T05:21:12.062Z,79.90
2018-05-01T05:23:39.036Z,80.00
2018-05-01T05:26:06.750Z,80.50
2018-05-01T05:28:33.923Z,80.50
2018-05-01T05:31:00.879Z,80.20
2018-05-01T05:33:28.653Z,80.40
2018-05-01T05:35:56.866Z,80.10
2018-05-01T05:38:23.829Z,80.10
2018-05-01T05:40:51.414Z,80.40
2018-05-01T05:43:18.385Z,80.10
2018-05-01T05:45:46.103Z,79.70
2018-05-01T05:48:13.254Z,79.60
2018-05-01T05:50:40.224Z,80.20
2018-05-01T05:53:07.317Z,80.30
2018-05-01T05:55:34.598Z,79.90
2018-05-01T05:58:01.548Z,79.60
2018-05-01T06:00:28.520Z,80.00
2018-05-01T06:02:56.280Z,79.80
2018-05-01T06:05:25.114Z,79.70
2018-05-01T06:07:52.200Z,80.00
2018-05-01T06:10:19.484Z,80.60
2018-05-01T06:12:47.234Z,80.90
2018-05-01T06:15:15.033Z,80.40
2018-05-01T06:17:42.119Z,80.30
2018-05-01T06:20:09.785Z,79.90
2018-05-01T06:22:36.772Z,80.00
2018-05-01T06:25:04.478Z,79.80
2018-05-01T06:27:32.039Z,79.80
2018-05-01T06:29:58.996Z,79.30
2018-05-01T06:32:26.494Z,79.80
2018-05-01T06:34:54.923Z,80.40
2018-05-01T06:37:21.979Z,80.40
2018-05-01T06:39:49.623Z,80.90
2018-05-01T06:42:17.247Z,80.80
2018-05-01T06:44:44.247Z,80.70
2018-05-01T06:47:11.223Z,80.50
2018-05-01T06:49:38.951Z,80.60
2018-05-01T06:52:05.901Z,80.60
2018-05-01T06:54:33.543Z,80.10
2018-05-01T06:57:00.522Z,80.50
2018-05-01T06:59:27.506Z,80.50
2018-05-01T07:01:54.458Z,80.70
2018-05-01T07:04:21.927Z,80.40
2018-05-01T07:06:48.822Z,80.10
2018-05-01T07:09:16.584Z,79.60
2018-05-01T07:11:44.416Z,79.70
2018-05-01T07:14:11.576Z,79.70
2018-05-01T07:16:38.535Z,79.70
2018-05-01T07:19:06.620Z,79.30
2018-05-01T07:21:34.334Z,78.80
2018-05-01T07:24:01.326Z,78.70
2018-05-01T07:26:29.054Z,78.90
2018-05-01T07:28:56.295Z,78.80
2018-05-01T07:31:23.247Z,78.20
2018-05-01T07:33:50.238Z,78.30
2018-05-01T07:36:18.468Z,78.00
2018-05-01T07:38:45.501Z,77.30
2018-05-01T07:41:12.994Z,77.60
2018-05-01T07:43:40.737Z,77.30
2018-05-01T07:46:07.703Z,77.30
2018-05-01T07:48:35.512Z,77.90
2018-05-01T07:51:02.459Z,77.50
2018-05-01T07:53:29.737Z,77.00
2018-05-01T07:55:56.725Z,77.10
2018-05-01T07:58:24.425Z,75.90
2018-05-01T08:00:51.601Z,75.90
2018-05-01T08:03:18.559Z,76.10
2018-05-01T08:05:45.920Z,76.30
2018-05-01T08:08:12.877Z,76.20
2018-05-01T08:10:40.673Z,75.70
2018-05-01T08:13:07.721Z,75.70
2018-05-01T08:15:34.713Z,76.10
2018-05-01T08:18:01.673Z,75.20
2018-05-01T08:20:30.026Z,76.30
2018-05-01T08:22:57.017Z,75.60
2018-05-01T08:25:23.988Z,75.10
2018-05-01T08:27:51.359Z,73.90
2018-05-01T08:30:18.673Z,73.90
2018-05-01T08:32:45.641Z,73.50
2018-05-01T08:35:13.259Z,73.60
2018-05-01T08:37:41.016Z,74.10
2018-05-01T08:40:07.993Z,74.00
2018-05-01T08:42:35.404Z,74.20
2018-05-01T08:45:02.891Z,74.80
2018-05-01T08:47:29.875Z,75.10
2018-05-01T08:49:56.830Z,75.50
2018-05-01T08:52:23.979Z,76.10
2018-05-01T08:54:51.449Z,75.50
2018-05-01T08:57:18.408Z,74.90
2018-05-01T08:59:45.409Z,75.60
2018-05-01T09:02:12.446Z,74.50
2018-05-01T09:04:39.868Z,75.10
2018-05-01T09:07:07.658Z,74.20
2018-05-01T09:09:34.629Z,74.20
2018-05-01T09:12:01.895Z,74.70
2018-05-01T09:14:28.854Z,72.40
2018-05-01T09:16:55.874Z,74.40
2018-05-01T09:19:23.147Z,71.60
2018-05-01T09:21:50.133Z,73.10
2018-05-01T09:24:17.239Z,72.80
2018-05-01T09:26:44.267Z,70.60
2018-05-01T09:29:11.552Z,70.40
2018-05-01T09:31:39.291Z,69.90
2018-05-01T09:34:06.275Z,69.80
2018-05-01T09:36:34.220Z,69.40
2018-05-01T09:39:01.458Z,69.40
2018-05-01T09:41:29.110Z,67.40
2018-05-01T09:43:56.578Z,67.40
2018-05-01T09:46:23.590Z,66.10
2018-05-01T09:48:50.688Z,66.80
2018-05-01T09:51:17.647Z,65.30
2018-05-01T09:53:46.294Z,62.60
2018-05-01T09:56:13.753Z,62.60
2018-05-01T09:58:41.217Z,64.00
2018-05-01T10:01:08.662Z,63.20
2018-05-01T10:03:36.138Z,63.10
2018-05-01T10:06:04.090Z,62.40
2018-05-01T10:08:31.620Z,61.70
2018-05-01T10:10:59.067Z,62.30
2018-05-01T10:13:26.562Z,60.90
2018-05-01T10:15:54.339Z,61.60
2018-05-01T10:18:22.053Z,60.90
2018-05-01T10:20:49.711Z,58.50
2018-05-01T10:23:17.159Z,58.50
2018-05-01T10:25:44.878Z,58.60
2018-05-01T10:28:12.819Z,59.00
2018-05-01T10:30:40.893Z,57.60
2018-05-01T10:33:08.452Z,57.40
2018-05-01T10:35:36.437Z,58.10
2018-05-01T10:38:03.895Z,56.80
2018-05-01T10:40:32.068Z,54.90
2018-05-01T10:42:59.551Z,54.40
2018-05-01T10:45:27.031Z,53.60
2018-05-01T10:47:54.484Z,53.30
2018-05-01T10:50:21.962Z,53.10
2018-05-01T10:52:49.386Z,53.50
2018-05-01T10:55:18.147Z,54.00
2018-05-01T10:57:45.584Z,54.00
2018-05-01T11:00:13.828Z,54.00
2018-05-01T11:02:41.280Z,54.00
2018-05-01T11:05:09.196Z,53.30
2018-05-01T11:07:37.059Z,53.20
2018-05-01T11:10:04.502Z,53.50
2018-05-01T11:12:32.526Z,52.60
2018-05-01T11:15:00.818Z,54.20
2018-05-01T11:17:28.403Z,54.20
2018-05-01T11:19:56.196Z,54.10
2018-05-01T11:22:23.655Z,54.10
2018-05-01T11:24:51.190Z,53.90
2018-05-01T11:27:18.976Z,53.80
2018-05-01T11:29:46.757Z,53.40
2018-05-01T11:32:15.123Z,54.00
2018-05-01T11:34:42.580Z,53.90
2018-05-01T11:37:11.365Z,51.40
2018-05-01T11:39:38.832Z,51.40
2018-05-01T11:42:07.535Z,50.60
2018-05-01T11:44:35.115Z,50.50
2018-05-01T11:47:03.323Z,49.80
2018-05-01T11:49:30.792Z,49.70
2018-05-01T11:51:58.258Z,50.00
2018-05-01T11:54:26.884Z,49.30
2018-05-01T11:56:54.340Z,49.10
2018-05-01T11:59:21.846Z,47.50
2018-05-01T12:01:50.556Z,46.10
2018-05-01T12:04:19.203Z,46.60
2018-05-01T12:06:46.689Z,46.50
2018-05-01T12:09:15.029Z,46.40
2018-05-01T12:11:42.810Z,46.30
2018-05-01T12:14:10.286Z,45.50
2018-05-01T12:16:38.749Z,44.80
2018-05-01T12:19:06.464Z,44.70
2018-05-01T12:21:33.898Z,43.50
2018-05-01T12:24:01.394Z,44.70
2018-05-01T12:26:28.845Z,43.60
2018-05-01T12:28:56.527Z,41.90
2018-05-01T12:31:23.996Z,43.00
2018-05-01T12:33:51.678Z,43.00
2018-05-01T12:36:20.359Z,43.90
2018-05-01T12:38:47.831Z,43.80
2018-05-01T12:41:15.770Z,44.10
2018-05-01T12:43:43.240Z,43.40
